Time;durP1;ratioP1;P1;durP2;ratioP2;P2;SDS_P1;SDS_P2;PMS_P1;PMS_P2;Temp;Humidity;BMP_temperature;BMP_pressure;BME280_temperature;BME280_humidity;BME280_pressure;Samples;Min_cycle;Max_cycle;Signal;HPM_P1;HPM_P2
2023/02/04 00:01:43;;;;;;;7.30;1.70;;;9.50;89.80;;;;;;5036443;28;20490;-68
2023/02/04 00:04:11;;;;;;;3.15;1.67;;;9.50;90.00;;;;;;5046240;28;20039;-68
2023/02/04 00:06:37;;;;;;;5.35;1.77;;;9.20;90.20;;;;;;5037367;28;20498;-68
2023/02/04 00:09:03;;;;;;;4.53;1.90;;;9.00;90.60;;;;;;5036310;28;20036;-68
2023/02/04 00:11:29;;;;;;;6.22;1.92;;;9.00;90.70;;;;;;5027494;28;20040;-69
2023/02/04 00:13:54;;;;;;;4.57;1.35;;;9.40;90.40;;;;;;5031597;28;20048;-67
2023/02/04 00:16:20;;;;;;;3.67;1.35;;;9.40;90.60;;;;;;5030003;28;20714;-68
2023/02/04 00:18:46;;;;;;;3.20;1.33;;;9.70;90.50;;;;;;5029463;28;20037;-68
2023/02/04 00:21:11;;;;;;;3.72;1.73;;;9.80;90.60;;;;;;5028939;28;20033;-68
2023/02/04 00:23:37;;;;;;;4.40;1.38;;;9.70;90.50;;;;;;5030120;28;20566;-68
2023/02/04 00:26:03;;;;;;;4.22;1.60;;;9.60;90.80;;;;;;5027127;28;20026;-68
2023/02/04 00:28:28;;;;;;;2.85;1.20;;;10.20;90.70;;;;;;5029651;28;20103;-68
2023/02/04 00:30:54;;;;;;;3.75;1.27;;;10.10;90.70;;;;;;5031539;28;20029;-68
2023/02/04 00:33:19;;;;;;;3.42;1.65;;;10.00;90.70;;;;;;5034459;28;20478;-68
2023/02/04 00:35:45;;;;;;;2.88;1.23;;;10.10;90.90;;;;;;5037676;28;20033;-68
2023/02/04 00:38:11;;;;;;;3.22;1.00;;;10.10;90.90;;;;;;5034421;28;20033;-68
2023/02/04 00:40:36;;;;;;;3.35;1.00;;;9.80;90.90;;;;;;5025804;28;20045;-68
2023/02/04 00:43:02;;;;;;;1.58;0.50;;;10.00;91.10;;;;;;5037140;28;20036;-68
2023/02/04 00:45:28;;;;;;;2.45;0.73;;;9.90;91.00;;;;;;5039689;28;20029;-68
2023/02/04 00:47:53;;;;;;;3.35;1.00;;;10.10;91.30;;;;;;5030234;28;20451;-68
2023/02/04 00:50:19;;;;;;;2.00;0.90;;;10.20;91.20;;;;;;5032993;28;20029;-68
2023/02/04 00:52:44;;;;;;;2.05;0.80;;;10.20;91.00;;;;;;5039229;28;20058;-68
2023/02/04 00:55:11;;;;;;;2.15;0.80;;;10.10;91.30;;;;;;5032413;28;20105;-68
2023/02/04 00:57:37;;;;;;;1.98;0.88;;;10.10;91.50;;;;;;5030627;28;20032;-68
2023/02/04 01:00:04;;;;;;;4.93;0.80;;;10.40;91.30;;;;;;5039297;28;20033;-68
2023/02/04 01:02:31;;;;;;;1.90;0.68;;;10.20;91.60;;;;;;5037073;28;20039;-68
2023/02/04 01:04:56;;;;;;;1.45;0.50;;;10.50;91.50;;;;;;5036092;28;20038;-68
2023/02/04 01:07:22;;;;;;;0.85;0.60;;;10.30;91.60;;;;;;5031283;28;20040;-68
2023/02/04 01:09:48;;;;;;;1.15;0.43;;;10.20;91.70;;;;;;5036239;28;20029;-68
2023/02/04 01:12:13;;;;;;;2.25;0.60;;;10.60;91.50;;;;;;5033439;28;20024;-68
2023/02/04 01:14:39;;;;;;;0.85;0.30;;;10.70;91.50;;;;;;5041095;28;20045;-68
2023/02/04 01:17:05;;;;;;;1.10;0.65;;;10.50;91.60;;;;;;5037083;28;20033;-68
2023/02/04 01:19:30;;;;;;;0.73;0.28;;;10.60;91.70;;;;;;5029762;28;20442;-68
2023/02/04 01:21:56;;;;;;;0.98;0.40;;;10.50;91.80;;;;;;5043997;28;20474;-68
2023/02/04 01:24:21;;;;;;;0.65;0.28;;;10.40;91.90;;;;;;5030375;28;20029;-68
2023/02/04 01:26:47;;;;;;;0.82;0.30;;;10.60;91.70;;;;;;5033639;28;20017;-68
2023/02/04 01:29:13;;;;;;;0.75;0.20;;;10.60;91.70;;;;;;5032739;28;20029;-68
2023/02/04 01:31:38;;;;;;;0.52;0.20;;;10.70;91.80;;;;;;5041008;28;20033;-68
2023/02/04 01:34:04;;;;;;;0.75;0.30;;;10.50;91.80;;;;;;5046707;28;20055;-69
2023/02/04 01:36:29;;;;;;;0.77;0.20;;;10.50;92.10;;;;;;5037779;28;20402;-68
2023/02/04 01:38:55;;;;;;;1.02;0.43;;;10.30;92.30;;;;;;5034878;28;20060;-68
2023/02/04 01:41:21;;;;;;;1.45;0.30;;;9.90;92.50;;;;;;5032961;28;20123;-69
2023/02/04 01:43:47;;;;;;;2.28;0.32;;;9.70;92.80;;;;;;5033443;28;20481;-68
2023/02/04 01:46:15;;;;;;;1.52;0.50;;;10.10;92.40;;;;;;5042763;28;20475;-68
2023/02/04 01:48:40;;;;;;;1.33;0.38;;;10.10;92.30;;;;;;5044244;28;20020;-68
2023/02/04 01:51:16;;;;;;;0.93;0.30;;;10.20;92.20;;;;;;5041746;28;20186;-68
2023/02/04 01:53:42;;;;;;;0.17;0.10;;;10.00;92.30;;;;;;5033142;28;20032;-68
2023/02/04 01:56:25;;;;;;;1.20;0.35;;;9.60;92.40;;;;;;5041890;28;20037;-68
2023/02/04 01:58:52;;;;;;;2.72;0.52;;;9.20;92.80;;;;;;5039171;28;20025;-68
2023/02/04 02:01:42;;;;;;;0.38;0.22;;;8.90;93.20;;;;;;5025468;28;20505;-68
2023/02/04 02:04:31;;;;;;;0.77;0.35;;;8.90;93.20;;;;;;5041265;28;20483;-68
2023/02/04 02:07:01;;;;;;;1.08;0.35;;;9.10;92.80;;;;;;5033956;28;20029;-68
2023/02/04 02:09:28;;;;;;;1.65;0.20;;;8.90;93.40;;;;;;5035126;28;20036;-68
2023/02/04 02:11:54;;;;;;;1.10;0.47;;;8.70;93.50;;;;;;5032402;28;20049;-68
2023/02/04 02:14:19;;;;;;;1.30;0.30;;;9.00;93.20;;;;;;5044361;28;20071;-68
2023/02/04 02:16:45;;;;;;;0.90;0.15;;;9.20;93.30;;;;;;5032221;28;20041;-68
2023/02/04 02:19:15;;;;;;;1.27;0.32;;;9.30;93.20;;;;;;5029916;28;20040;-68
2023/02/04 02:21:54;;;;;;;1.55;0.08;;;10.10;93.00;;;;;;5031796;28;20075;-68
2023/02/04 02:24:26;;;;;;;0.00;0.00;;;10.20;92.60;;;;;;5031932;28;20033;-68
2023/02/04 02:26:53;;;;;;;0.20;0.10;;;10.10;92.60;;;;;;5029993;28;20486;-68
2023/02/04 02:29:20;;;;;;;0.25;0.05;;;9.90;92.80;;;;;;5038498;28;20037;-68
2023/02/04 02:31:45;;;;;;;0.55;0.10;;;10.30;92.60;;;;;;5036347;28;20037;-68
2023/02/04 02:34:11;;;;;;;0.28;0.00;;;10.30;92.40;;;;;;5033543;28;20108;-68
2023/02/04 02:36:37;;;;;;;0.30;0.10;;;10.00;92.50;;;;;;5033874;28;20072;-69
2023/02/04 02:39:03;;;;;;;0.55;0.10;;;9.60;92.60;;;;;;5035195;28;20053;-68
2023/02/04 02:41:28;;;;;;;0.22;0.10;;;9.60;92.80;;;;;;5042445;28;20037;-68
2023/02/04 02:43:54;;;;;;;1.42;0.20;;;9.40;92.80;;;;;;5029965;28;20504;-68
2023/02/04 02:46:20;;;;;;;2.22;0.10;;;9.10;93.10;;;;;;5036376;28;20107;-68
2023/02/04 02:48:46;;;;;;;0.28;0.10;;;9.20;93.20;;;;;;5033644;28;20506;-68
2023/02/04 02:51:11;;;;;;;0.00;0.00;;;8.80;93.30;;;;;;5034633;28;20037;-69
2023/02/04 02:53:37;;;;;;;1.35;0.30;;;9.00;93.30;;;;;;5035462;28;20026;-68
2023/02/04 02:56:04;;;;;;;0.32;0.10;;;8.70;93.50;;;;;;5038911;28;20038;-68
2023/02/04 02:58:32;;;;;;;0.00;0.00;;;8.90;93.60;;;;;;5032403;28;20025;-68
2023/02/04 03:01:00;;;;;;;0.25;0.10;;;8.80;93.50;;;;;;5040536;28;20060;-68
2023/02/04 03:03:31;;;;;;;0.30;0.15;;;8.70;93.50;;;;;;5040476;28;20494;-68
2023/02/04 03:06:09;;;;;;;0.05;0.05;;;8.60;93.60;;;;;;5030597;28;20029;-68
2023/02/04 03:08:35;;;;;;;0.45;0.10;;;8.90;93.30;;;;;;5041462;28;20025;-67
2023/02/04 03:11:01;;;;;;;0.10;0.00;;;8.40;93.70;;;;;;5037395;28;20021;-67
2023/02/04 03:13:26;;;;;;;0.88;0.20;;;8.30;93.90;;;;;;5037389;28;20039;-68
2023/02/04 03:15:52;;;;;;;0.10;0.00;;;8.70;93.40;;;;;;5030949;28;20030;-68
2023/02/04 03:18:19;;;;;;;0.00;0.00;;;8.80;93.20;;;;;;5034582;28;20530;-67
2023/02/04 03:20:47;;;;;;;0.00;0.00;;;9.10;93.30;;;;;;5033884;28;20057;-67
2023/02/04 03:23:13;;;;;;;0.00;0.00;;;9.30;92.80;;;;;;5037262;28;20045;-68
2023/02/04 03:25:39;;;;;;;0.20;0.10;;;9.20;92.50;;;;;;5034193;28;20037;-68
2023/02/04 03:28:04;;;;;;;0.00;0.00;;;9.00;92.80;;;;;;5036577;28;20079;-67
2023/02/04 03:30:30;;;;;;;0.03;0.03;;;8.90;92.90;;;;;;5039257;28;20029;-67
2023/02/04 03:32:56;;;;;;;0.00;0.00;;;8.90;92.80;;;;;;5044807;28;20033;-68
2023/02/04 03:35:22;;;;;;;0.22;0.00;;;9.00;92.80;;;;;;5035138;28;20029;-68
2023/02/04 03:37:48;;;;;;;0.00;0.00;;;9.00;92.70;;;;;;5035500;28;20029;-68
2023/02/04 03:40:14;;;;;;;0.00;0.00;;;9.20;92.50;;;;;;5037504;28;20030;-68
2023/02/04 03:42:39;;;;;;;0.10;0.00;;;8.90;92.90;;;;;;5035114;28;20038;-68
2023/02/04 03:45:05;;;;;;;0.85;0.03;;;9.00;92.60;;;;;;5032506;28;20032;-68
2023/02/04 03:47:31;;;;;;;0.30;0.00;;;9.00;92.50;;;;;;5040547;28;20032;-68
2023/02/04 03:49:57;;;;;;;0.08;0.00;;;9.00;92.60;;;;;;5035321;28;20043;-67
2023/02/04 03:52:22;;;;;;;0.35;0.00;;;10.00;91.80;;;;;;5037063;28;20041;-67
2023/02/04 03:54:48;;;;;;;1.17;0.20;;;10.10;91.60;;;;;;5031290;28;20095;-68
2023/02/04 03:57:14;;;;;;;0.00;0.00;;;9.30;92.20;;;;;;5030334;28;20045;-67
2023/02/04 03:59:40;;;;;;;0.17;0.03;;;8.80;92.90;;;;;;5036194;28;20025;-69
2023/02/04 04:02:06;;;;;;;1.20;0.00;;;9.10;92.60;;;;;;5038819;28;20044;-67
2023/02/04 04:04:32;;;;;;;2.55;0.30;;;9.60;92.30;;;;;;5030691;28;20029;-67
2023/02/04 04:06:58;;;;;;;0.22;0.00;;;9.30;92.60;;;;;;5028107;28;20026;-67
2023/02/04 04:09:23;;;;;;;0.00;0.00;;;9.50;92.70;;;;;;5034348;28;20038;-67
2023/02/04 04:11:49;;;;;;;0.20;0.00;;;10.10;91.70;;;;;;5033256;28;20029;-67
2023/02/04 04:14:15;;;;;;;0.38;0.10;;;10.20;91.50;;;;;;5031767;28;20063;-67
2023/02/04 04:16:40;;;;;;;3.83;0.10;;;9.90;91.90;;;;;;5038666;28;20062;-67
2023/02/04 04:19:06;;;;;;;0.17;0.00;;;9.80;91.90;;;;;;5030244;28;20041;-67
2023/02/04 04:21:31;;;;;;;0.95;0.10;;;9.70;92.00;;;;;;5037691;28;20100;-67
2023/02/04 04:23:57;;;;;;;0.30;0.00;;;10.20;91.70;;;;;;5031593;28;20075;-68
2023/02/04 04:26:23;;;;;;;1.25;0.30;;;9.80;91.90;;;;;;5033533;28;20029;-68
2023/02/04 04:28:48;;;;;;;0.52;0.10;;;9.90;91.90;;;;;;5030989;28;20129;-67
2023/02/04 04:31:14;;;;;;;0.52;0.10;;;10.30;91.50;;;;;;5039294;28;20541;-67
2023/02/04 04:33:40;;;;;;;0.00;0.00;;;10.30;91.30;;;;;;5036674;28;20025;-67
2023/02/04 04:36:06;;;;;;;0.22;0.10;;;10.30;91.40;;;;;;5029242;28;20047;-67
2023/02/04 04:38:32;;;;;;;1.27;0.00;;;10.00;91.60;;;;;;5034822;28;20417;-67
2023/02/04 04:40:57;;;;;;;3.65;0.10;;;10.10;91.50;;;;;;5031426;28;20049;-68
2023/02/04 04:43:23;;;;;;;0.60;0.20;;;9.70;92.00;;;;;;5035968;28;20525;-67
2023/02/04 04:45:49;;;;;;;2.33;0.40;;;9.60;92.20;;;;;;5032614;28;20079;-67
2023/02/04 04:48:14;;;;;;;2.63;0.50;;;9.60;92.00;;;;;;5039914;28;20029;-67
2023/02/04 04:50:40;;;;;;;0.00;0.00;;;9.90;91.70;;;;;;5035809;28;20033;-67
2023/02/04 04:53:10;;;;;;;0.30;0.00;;;10.00;91.50;;;;;;5026085;28;20036;-68
2023/02/04 04:55:37;;;;;;;0.00;0.00;;;10.00;91.60;;;;;;5035676;28;20110;-68
2023/02/04 04:58:03;;;;;;;0.00;0.00;;;9.60;92.10;;;;;;5040303;28;20033;-67
2023/02/04 05:00:29;;;;;;;0.10;0.00;;;9.60;91.90;;;;;;5036208;28;20494;-67
2023/02/04 05:02:55;;;;;;;0.28;0.00;;;10.20;91.30;;;;;;5028007;28;20037;-67
2023/02/04 05:05:20;;;;;;;0.00;0.00;;;10.00;91.40;;;;;;5029631;28;20510;-67
2023/02/04 05:07:46;;;;;;;0.93;0.10;;;10.40;91.00;;;;;;5038138;28;20025;-67
2023/02/04 05:10:11;;;;;;;0.00;0.00;;;10.20;91.20;;;;;;5038111;28;20053;-67
2023/02/04 05:12:37;;;;;;;0.13;0.00;;;10.50;91.00;;;;;;5041454;28;20033;-67
2023/02/04 05:15:03;;;;;;;0.00;0.00;;;10.40;91.10;;;;;;5034101;28;20104;-68
2023/02/04 05:17:29;;;;;;;1.65;0.05;;;10.40;91.00;;;;;;5030800;28;20172;-68
2023/02/04 05:19:54;;;;;;;0.45;0.10;;;9.90;91.60;;;;;;5035712;28;20503;-68
2023/02/04 05:22:20;;;;;;;2.17;0.10;;;10.00;91.30;;;;;;5031063;28;20706;-68
2023/02/04 05:24:46;;;;;;;0.20;0.08;;;9.80;91.70;;;;;;5027022;28;20033;-67
2023/02/04 05:27:11;;;;;;;0.10;0.00;;;10.20;91.20;;;;;;5026871;28;20479;-67
2023/02/04 05:29:37;;;;;;;0.35;0.10;;;9.90;91.40;;;;;;5035164;28;20028;-67
2023/02/04 05:32:03;;;;;;;0.00;0.00;;;10.40;90.90;;;;;;5038295;28;20029;-67
2023/02/04 05:34:28;;;;;;;0.50;0.10;;;10.30;90.90;;;;;;5030454;28;20187;-67
2023/02/04 05:36:54;;;;;;;1.00;0.00;;;10.30;90.90;;;;;;5030896;28;20684;-67
2023/02/04 05:39:20;;;;;;;2.63;0.20;;;10.40;90.90;;;;;;5032283;28;20037;-67
2023/02/04 05:41:45;;;;;;;0.80;0.13;;;10.00;91.20;;;;;;5029018;28;20103;-67
2023/02/04 05:44:11;;;;;;;0.17;0.00;;;10.00;91.30;;;;;;5030899;28;20033;-68
2023/02/04 05:46:38;;;;;;;0.05;0.00;;;10.20;90.90;;;;;;5033311;28;20064;-68
2023/02/04 05:49:04;;;;;;;0.60;0.10;;;10.40;90.80;;;;;;5039428;28;20032;-68
2023/02/04 05:51:29;;;;;;;0.20;0.10;;;10.80;90.30;;;;;;5038192;28;20036;-67
2023/02/04 05:53:55;;;;;;;2.10;0.25;;;10.50;90.60;;;;;;5033813;28;20030;-67
2023/02/04 05:56:20;;;;;;;4.38;0.70;;;10.30;90.60;;;;;;5033342;28;20033;-67
2023/02/04 05:58:46;;;;;;;0.43;0.15;;;10.50;90.40;;;;;;5039096;28;20021;-67
2023/02/04 06:01:12;;;;;;;0.60;0.20;;;10.80;89.90;;;;;;5029473;28;20115;-68
2023/02/04 06:03:37;;;;;;;3.80;1.33;;;10.70;89.90;;;;;;5030432;28;20021;-68
2023/02/04 06:06:03;;;;;;;14.02;12.82;;;10.70;89.90;;;;;;5031100;28;20037;-68
2023/02/04 06:08:29;;;;;;;4.82;2.35;;;10.50;90.10;;;;;;5023565;28;20518;-68
2023/02/04 06:10:54;;;;;;;1.35;0.68;;;10.30;90.30;;;;;;5025033;28;20072;-67
2023/02/04 06:13:20;;;;;;;0.20;0.10;;;10.30;90.30;;;;;;5036261;28;20046;-67
2023/02/04 06:15:46;;;;;;;0.15;0.10;;;10.40;90.10;;;;;;5025466;28;20035;-67
2023/02/04 06:18:12;;;;;;;0.38;0.05;;;10.70;89.50;;;;;;5032908;28;20029;-67
2023/02/04 06:20:38;;;;;;;1.85;0.00;;;10.70;89.40;;;;;;5040164;28;20455;-67
2023/02/04 06:23:04;;;;;;;0.20;0.00;;;10.20;90.40;;;;;;5030118;28;20034;-67
2023/02/04 06:25:29;;;;;;;1.75;0.05;;;10.40;90.00;;;;;;5033134;28;20029;-68
2023/02/04 06:27:55;;;;;;;0.75;0.10;;;11.00;88.40;;;;;;5038157;28;20032;-67
2023/02/04 06:30:21;;;;;;;0.25;0.05;;;11.10;88.20;;;;;;5030737;28;20029;-68
2023/02/04 06:32:47;;;;;;;0.30;0.10;;;11.00;88.40;;;;;;5035560;28;20032;-67
2023/02/04 06:35:14;;;;;;;1.35;0.13;;;10.70;88.60;;;;;;5017590;28;20120;-68
2023/02/04 06:40:16;;;;;;;2.08;0.20;;;10.90;88.20;;;;;;5507610;22;20084;-69
2023/02/04 06:42:41;;;;;;;0.70;0.00;;;10.80;88.20;;;;;;5037231;28;20429;-71
2023/02/04 06:45:07;;;;;;;0.60;0.45;;;10.70;88.10;;;;;;5036983;28;20061;-70
2023/02/04 06:47:33;;;;;;;0.17;0.13;;;10.60;88.30;;;;;;5036840;28;20037;-70
2023/02/04 06:49:58;;;;;;;1.55;0.20;;;10.50;88.20;;;;;;5039037;28;20029;-70
2023/02/04 06:52:24;;;;;;;0.38;0.10;;;10.50;88.60;;;;;;5040004;28;21022;-70
2023/02/04 06:54:49;;;;;;;0.10;0.10;;;10.50;88.00;;;;;;5038862;28;20037;-70
2023/02/04 06:57:15;;;;;;;0.05;0.00;;;10.70;88.00;;;;;;5038734;28;20045;-71
2023/02/04 06:59:42;;;;;;;0.32;0.25;;;10.50;87.90;;;;;;5039766;28;20501;-71
2023/02/04 07:02:11;;;;;;;0.10;0.00;;;10.80;87.00;;;;;;5038203;28;20039;-71
2023/02/04 07:04:36;;;;;;;0.13;0.10;;;10.60;87.80;;;;;;5038746;28;20032;-72
2023/02/04 07:07:02;;;;;;;0.35;0.08;;;10.60;87.30;;;;;;5041315;28;20033;-73
2023/02/04 07:09:28;;;;;;;0.10;0.00;;;10.60;86.90;;;;;;5041139;28;20104;-70
2023/02/04 07:11:53;;;;;;;4.75;2.60;;;11.30;85.60;;;;;;5037604;28;20025;-71
2023/02/04 07:14:19;;;;;;;0.52;0.30;;;11.40;84.70;;;;;;5044760;28;20083;-70
2023/02/04 07:16:45;;;;;;;0.10;0.10;;;11.20;85.40;;;;;;5035534;28;20116;-72
2023/02/04 07:19:11;;;;;;;0.10;0.00;;;10.60;87.60;;;;;;5035953;28;20057;-71
2023/02/04 07:21:36;;;;;;;0.52;0.00;;;10.60;87.20;;;;;;5036849;28;20029;-73
2023/02/04 07:24:02;;;;;;;2.72;0.20;;;10.70;86.40;;;;;;5042938;28;20124;-72
2023/02/04 07:26:28;;;;;;;0.43;0.13;;;10.80;86.10;;;;;;5042035;28;20047;-71
2023/02/04 07:28:53;;;;;;;0.52;0.20;;;10.70;86.50;;;;;;5042796;28;20036;-72
2023/02/04 07:31:19;;;;;;;0.68;0.30;;;10.70;86.40;;;;;;5039820;28;20025;-71
2023/02/04 07:33:45;;;;;;;0.47;0.20;;;10.90;85.60;;;;;;5041961;28;20028;-71
2023/02/04 07:36:10;;;;;;;0.22;0.10;;;10.60;87.10;;;;;;5041752;28;20052;-72
2023/02/04 07:38:36;;;;;;;1.55;0.38;;;10.40;87.40;;;;;;5043737;28;20021;-72
2023/02/04 07:41:01;;;;;;;0.70;0.32;;;10.70;86.20;;;;;;5044296;28;20564;-71
2023/02/04 07:43:27;;;;;;;0.47;0.20;;;10.50;86.80;;;;;;5046785;28;20021;-71
2023/02/04 07:45:53;;;;;;;0.55;0.10;;;10.30;87.50;;;;;;5042737;28;20032;-71
2023/02/04 07:48:18;;;;;;;0.15;0.10;;;10.00;88.20;;;;;;5042508;28;20718;-71
2023/02/04 07:50:44;;;;;;;1.55;0.13;;;10.40;86.30;;;;;;5041867;28;20617;-71
2023/02/04 07:53:09;;;;;;;0.90;0.30;;;10.60;86.50;;;;;;5021132;28;20034;-72
2023/02/04 07:55:35;;;;;;;1.05;0.20;;;10.60;85.90;;;;;;5040263;28;20029;-70
2023/02/04 07:58:01;;;;;;;0.57;0.20;;;10.50;86.50;;;;;;5042626;28;20048;-71
2023/02/04 08:00:26;;;;;;;0.88;0.30;;;10.50;86.20;;;;;;5039630;28;20115;-71
2023/02/04 08:02:52;;;;;;;0.85;0.20;;;10.50;85.70;;;;;;5019587;28;20029;-70
2023/02/04 08:05:18;;;;;;;1.25;0.32;;;11.00;84.10;;;;;;5038614;28;20047;-71
2023/02/04 08:07:43;;;;;;;1.17;0.22;;;11.20;83.60;;;;;;5036686;28;20469;-72
2023/02/04 08:10:10;;;;;;;0.55;0.20;;;11.20;83.30;;;;;;5039294;28;20047;-71
2023/02/04 08:12:36;;;;;;;0.73;0.40;;;11.10;84.70;;;;;;5040588;28;20033;-71
2023/02/04 08:15:02;;;;;;;1.70;0.35;;;10.90;84.20;;;;;;5034630;28;20119;-71
2023/02/04 08:17:28;;;;;;;2.13;0.25;;;11.40;81.30;;;;;;5040910;28;20044;-71
2023/02/04 08:19:53;;;;;;;0.93;0.30;;;11.60;81.50;;;;;;5034926;28;20082;-71
2023/02/04 08:22:19;;;;;;;0.55;0.15;;;11.60;81.70;;;;;;5039871;28;20047;-71
2023/02/04 08:24:45;;;;;;;0.25;0.10;;;11.80;80.10;;;;;;5041575;28;20029;-71
2023/02/04 08:27:11;;;;;;;1.45;0.55;;;11.70;81.10;;;;;;5042578;28;20037;-71
2023/02/04 08:29:36;;;;;;;0.65;0.10;;;12.00;79.90;;;;;;5043259;28;20013;-71
2023/02/04 08:32:02;;;;;;;2.28;0.22;;;11.80;80.00;;;;;;5042786;28;20116;-71
2023/02/04 08:34:28;;;;;;;0.25;0.08;;;11.60;80.80;;;;;;5044459;28;20939;-71
2023/02/04 08:36:54;;;;;;;0.30;0.15;;;11.70;79.00;;;;;;5043669;28;20041;-71
2023/02/04 08:39:20;;;;;;;1.75;0.10;;;11.60;80.20;;;;;;5040209;28;20056;-70
2023/02/04 08:41:47;;;;;;;1.05;0.10;;;11.70;79.00;;;;;;5042889;28;20432;-71
2023/02/04 08:44:13;;;;;;;0.82;0.20;;;11.70;79.70;;;;;;5042153;28;20091;-72
2023/02/04 08:46:39;;;;;;;0.32;0.13;;;11.60;79.40;;;;;;5042876;28;20033;-72
2023/02/04 08:49:05;;;;;;;1.00;0.22;;;11.30;80.40;;;;;;5042792;28;20036;-72
2023/02/04 08:51:30;;;;;;;0.45;0.20;;;11.30;79.40;;;;;;5039900;28;20028;-71
2023/02/04 08:53:56;;;;;;;0.88;0.28;;;11.00;81.70;;;;;;5043445;28;20028;-70
2023/02/04 08:56:22;;;;;;;21.23;13.68;;;11.20;79.20;;;;;;5045547;28;20112;-71
2023/02/04 08:58:48;;;;;;;11.13;6.90;;;11.50;77.80;;;;;;5047422;28;20025;-70
2023/02/04 09:01:13;;;;;;;25.52;13.90;;;11.50;78.80;;;;;;5044315;28;20091;-69
2023/02/04 09:03:39;;;;;;;13.25;3.95;;;11.30;79.20;;;;;;5036968;28;20386;-70
2023/02/04 09:06:06;;;;;;;1.60;1.10;;;11.20;78.60;;;;;;5037922;28;20607;-70
2023/02/04 09:08:32;;;;;;;1.48;0.75;;;11.50;77.10;;;;;;5047407;28;20044;-70
2023/02/04 09:10:58;;;;;;;0.85;0.40;;;11.60;76.80;;;;;;5046692;28;20037;-71
2023/02/04 09:13:23;;;;;;;1.75;0.43;;;11.40;77.70;;;;;;5049814;28;20029;-70
2023/02/04 09:15:50;;;;;;;1.92;1.35;;;11.20;78.40;;;;;;5039490;28;20160;-70
2023/02/04 09:18:18;;;;;;;3.83;0.60;;;11.20;77.20;;;;;;5020498;28;20039;-70
2023/02/04 09:20:45;;;;;;;4.55;0.30;;;11.60;76.20;;;;;;5040887;28;20171;-71
2023/02/04 09:23:11;;;;;;;0.90;0.30;;;11.70;75.70;;;;;;5039992;28;20037;-69
2023/02/04 09:25:42;;;;;;;0.45;0.20;;;11.50;77.50;;;;;;5042056;28;20039;-70
2023/02/04 09:28:10;;;;;;;2.33;0.40;;;11.50;76.60;;;;;;5039299;28;20028;-71
2023/02/04 09:30:39;;;;;;;0.98;0.60;;;11.50;76.60;;;;;;5039263;28;20041;-71
2023/02/04 09:33:05;;;;;;;0.43;0.28;;;11.60;76.70;;;;;;5040092;28;20082;-71
2023/02/04 09:35:31;;;;;;;0.75;0.20;;;11.60;75.40;;;;;;5043776;28;20029;-71
2023/02/04 09:37:56;;;;;;;1.23;0.20;;;11.70;75.20;;;;;;5052754;28;20039;-70
2023/02/04 09:40:23;;;;;;;3.45;0.50;;;11.60;76.70;;;;;;5048178;28;20049;-71
2023/02/04 09:42:50;;;;;;;1.67;0.40;;;11.60;75.10;;;;;;5049132;28;20029;-71
2023/02/04 09:45:20;;;;;;;0.17;0.10;;;11.90;74.20;;;;;;5047001;28;20071;-69
2023/02/04 09:47:46;;;;;;;2.47;0.43;;;12.20;73.70;;;;;;5033879;28;20114;-71
2023/02/04 09:50:17;;;;;;;4.57;0.55;;;12.40;72.80;;;;;;5045626;28;20064;-71
2023/02/04 09:52:44;;;;;;;2.70;0.50;;;12.60;71.80;;;;;;5048261;28;20029;-71
2023/02/04 09:55:18;;;;;;;0.90;0.30;;;12.90;71.40;;;;;;5049802;28;20482;-71
2023/02/04 09:57:45;;;;;;;0.90;0.40;;;13.00;72.00;;;;;;5047514;28;20041;-71
2023/02/04 10:00:19;;;;;;;1.40;0.65;;;13.10;71.60;;;;;;5036688;28;20037;-71
2023/02/04 10:02:45;;;;;;;0.20;0.10;;;13.20;70.80;;;;;;5048800;28;20052;-71
2023/02/04 10:05:31;;;;;;;0.65;0.13;;;13.70;69.00;;;;;;5047568;28;20514;-71
2023/02/04 10:07:57;;;;;;;0.63;0.20;;;13.70;70.60;;;;;;5048618;28;20083;-71
2023/02/04 10:10:26;;;;;;;1.90;0.20;;;13.90;69.20;;;;;;5049591;28;20613;-72
2023/02/04 10:12:59;;;;;;;1.45;0.38;;;14.00;68.40;;;;;;5050172;28;20033;-72
2023/02/04 10:15:25;;;;;;;0.45;0.10;;;14.00;68.90;;;;;;5048053;28;20037;-71
2023/02/04 10:17:54;;;;;;;0.28;0.10;;;14.20;66.90;;;;;;5050126;28;20040;-71
2023/02/04 10:20:23;;;;;;;0.20;0.10;;;14.20;67.30;;;;;;5041494;28;20033;-71
2023/02/04 10:22:52;;;;;;;0.10;0.05;;;14.20;68.20;;;;;;5044031;28;20024;-71
2023/02/04 10:25:20;;;;;;;0.75;0.20;;;14.20;67.20;;;;;;5047917;28;20031;-71
2023/02/04 10:27:50;;;;;;;0.10;0.10;;;14.10;67.80;;;;;;5047376;28;20459;-71
2023/02/04 10:30:19;;;;;;;0.32;0.10;;;14.20;67.50;;;;;;5045167;28;20029;-71
2023/02/04 10:32:45;;;;;;;0.90;0.17;;;14.30;65.80;;;;;;5045554;28;20032;-71
2023/02/04 10:35:13;;;;;;;1.00;0.22;;;14.30;65.80;;;;;;5047844;28;20029;-71
2023/02/04 10:37:39;;;;;;;1.45;0.30;;;14.30;66.50;;;;;;5041731;28;20496;-71
2023/02/04 10:40:05;;;;;;;1.35;0.10;;;14.30;65.30;;;;;;5050490;28;20112;-71
2023/02/04 10:42:31;;;;;;;0.73;0.32;;;14.40;65.90;;;;;;5053042;28;20530;-71
2023/02/04 10:44:57;;;;;;;0.70;0.10;;;14.30;65.50;;;;;;5051623;28;20029;-71
2023/02/04 10:47:26;;;;;;;0.55;0.13;;;14.50;65.30;;;;;;5056409;28;20028;-72
2023/02/04 10:49:57;;;;;;;0.43;0.10;;;14.60;64.60;;;;;;5053364;28;20492;-71
2023/02/04 10:52:31;;;;;;;0.47;0.20;;;14.70;64.60;;;;;;5053740;28;20033;-72
2023/02/04 10:54:57;;;;;;;0.68;0.28;;;14.70;65.50;;;;;;5051001;28;20021;-72
2023/02/04 10:57:27;;;;;;;0.10;0.10;;;14.80;64.40;;;;;;5053086;28;20583;-72
2023/02/04 11:00:05;;;;;;;1.05;0.10;;;14.90;65.10;;;;;;5053125;28;20033;-73
2023/02/04 11:02:33;;;;;;;0.80;0.50;;;15.00;63.50;;;;;;5051660;28;20401;-73
2023/02/04 11:05:00;;;;;;;5.47;0.32;;;15.10;63.40;;;;;;5050373;28;20031;-73
2023/02/04 11:07:26;;;;;;;0.52;0.05;;;15.30;62.70;;;;;;5052941;28;20045;-71
2023/02/04 11:09:52;;;;;;;0.55;0.20;;;15.20;62.90;;;;;;5044508;28;20037;-71
2023/02/04 11:12:34;;;;;;;0.68;0.10;;;15.30;62.90;;;;;;5051351;28;20734;-71
2023/02/04 11:14:59;;;;;;;0.47;0.10;;;15.30;62.20;;;;;;5049508;28;20049;-70
2023/02/04 11:17:32;;;;;;;1.92;0.30;;;15.10;61.90;;;;;;5046476;28;20120;-71
2023/02/04 11:19:59;;;;;;;0.90;0.28;;;15.40;65.10;;;;;;5048982;28;20029;-71
2023/02/04 11:22:41;;;;;;;2.35;0.30;;;15.70;70.90;;;;;;5049656;28;20120;-71
2023/02/04 11:25:36;;;;;;;1.00;0.38;;;15.50;62.30;;;;;;5053080;28;20029;-70
2023/02/04 11:28:23;;;;;;;1.63;0.17;;;15.60;61.80;;;;;;5053100;28;20480;-71
2023/02/04 11:31:04;;;;;;;1.30;0.20;;;15.60;62.80;;;;;;5054404;28;20366;-71
2023/02/04 11:33:39;;;;;;;0.43;0.13;;;15.40;61.40;;;;;;5053953;28;20428;-71
2023/02/04 11:36:08;;;;;;;0.47;0.10;;;15.40;61.80;;;;;;5050190;28;20029;-71
2023/02/04 11:38:34;;;;;;;0.80;0.20;;;15.50;62.80;;;;;;5053966;28;20025;-71
2023/02/04 11:41:00;;;;;;;14.60;1.60;;;15.50;61.60;;;;;;5052939;28;20055;-70
2023/02/04 11:43:26;;;;;;;0.98;0.43;;;15.80;61.20;;;;;;5053937;28;20359;-71
2023/02/04 11:46:15;;;;;;;0.95;0.35;;;15.70;60.90;;;;;;5052950;28;20029;-71
2023/02/04 11:48:41;;;;;;;0.10;0.00;;;15.80;60.40;;;;;;5034615;28;20034;-70
2023/02/04 11:51:19;;;;;;;3.45;0.40;;;15.90;60.50;;;;;;5051131;28;20047;-70
2023/02/04 11:53:50;;;;;;;0.80;0.20;;;15.80;60.60;;;;;;5049459;28;20043;-71
2023/02/04 11:56:20;;;;;;;0.77;0.20;;;15.80;59.80;;;;;;5039297;28;20033;-70
2023/02/04 11:58:49;;;;;;;0.10;0.10;;;16.00;60.20;;;;;;5053115;28;20116;-70
2023/02/04 12:01:30;;;;;;;3.17;0.20;;;16.00;60.00;;;;;;5053251;28;20547;-70
2023/02/04 12:03:58;;;;;;;1.27;0.40;;;15.90;59.90;;;;;;5052994;28;20044;-70
2023/02/04 12:06:28;;;;;;;0.55;0.15;;;16.20;60.40;;;;;;5052730;28;20458;-71
2023/02/04 12:09:15;;;;;;;0.10;0.08;;;16.30;59.30;;;;;;5052362;28;20496;-70
2023/02/04 12:11:51;;;;;;;0.52;0.10;;;16.30;58.60;;;;;;5052905;28;20071;-70
2023/02/04 12:14:18;;;;;;;0.43;0.20;;;16.40;57.70;;;;;;5053393;28;20028;-70
2023/02/04 12:16:46;;;;;;;0.93;0.20;;;16.30;57.80;;;;;;5053380;28;20114;-70
2023/02/04 12:19:12;;;;;;;2.00;0.30;;;16.40;57.80;;;;;;5053301;28;20029;-70
2023/02/04 12:21:39;;;;;;;5.75;0.55;;;16.60;58.50;;;;;;5052559;28;20032;-71
2023/02/04 12:24:04;;;;;;;0.73;0.40;;;16.60;56.40;;;;;;5053237;28;20029;-70
2023/02/04 12:26:30;;;;;;;2.53;0.15;;;16.40;56.10;;;;;;5052615;28;20396;-70
2023/02/04 12:28:56;;;;;;;0.08;0.03;;;16.50;56.70;;;;;;5033512;28;20105;-71
2023/02/04 12:31:22;;;;;;;0.28;0.10;;;16.60;56.70;;;;;;5040631;28;20162;-70
2023/02/04 12:33:47;;;;;;;0.47;0.15;;;16.60;56.60;;;;;;5053097;28;20426;-71
2023/02/04 12:36:13;;;;;;;1.95;0.22;;;16.60;56.10;;;;;;5051723;28;20037;-70
2023/02/04 12:38:39;;;;;;;26.27;2.28;;;16.60;55.70;;;;;;5051079;28;20990;-70
2023/02/04 12:41:05;;;;;;;3.03;0.20;;;16.50;56.30;;;;;;5052027;28;20099;-70
2023/02/04 12:43:30;;;;;;;0.93;0.35;;;16.60;54.50;;;;;;5051073;28;20029;-71
2023/02/04 12:45:56;;;;;;;2.13;0.17;;;16.60;54.60;;;;;;5051963;28;20036;-71
2023/02/04 12:48:21;;;;;;;1.17;0.20;;;16.70;53.60;;;;;;5050541;28;20037;-70
2023/02/04 12:50:47;;;;;;;0.75;0.20;;;16.80;55.30;;;;;;5051340;28;20067;-70